Time;durP1;ratioP1;P1;durP2;ratioP2;P2;SDS_P1;SDS_P2;PMS_P1;PMS_P2;Temp;Humidity;BMP_temperature;BMP_pressure;BME280_temperature;BME280_humidity;BME280_pressure;Samples;Min_cycle;Max_cycle;Signal;HPM_P1;HPM_P2
2022/09/17 00:02:31;;;;;;;1.73;1.30;;;;;;;;;;5106082;28;20214;-76
2022/09/17 00:05:38;;;;;;;4.20;1.90;;;;;;;;;;5095129;28;20187;-77
2022/09/17 00:08:42;;;;;;;2.00;1.30;;;;;;;;;;5094996;28;20203;-76
2022/09/17 00:11:47;;;;;;;1.67;1.23;;;;;;;;;;5093804;28;20210;-77
2022/09/17 00:14:51;;;;;;;1.40;1.30;;;;;;;;;;5094135;28;20204;-77
2022/09/17 00:17:56;;;;;;;2.43;1.20;;;;;;;;;;5094591;28;20767;-77
2022/09/17 00:21:02;;;;;;;2.57;1.30;;;;;;;;;;5093931;28;20175;-76
2022/09/17 00:24:06;;;;;;;2.00;1.23;;;;;;;;;;5093808;28;20179;-76
2022/09/17 00:27:10;;;;;;;4.00;1.43;;;;;;;;;;5094727;28;20627;-77
2022/09/17 00:30:14;;;;;;;2.80;1.20;;;;;;;;;;5093419;28;20218;-77
2022/09/17 00:33:19;;;;;;;1.77;1.20;;;;;;;;;;5094596;28;20179;-76
2022/09/17 00:36:24;;;;;;;1.23;0.97;;;;;;;;;;5093464;28;20179;-77
2022/09/17 00:39:28;;;;;;;3.53;1.17;;;;;;;;;;5094624;28;20631;-76
2022/09/17 00:42:32;;;;;;;1.17;1.00;;;;;;;;;;5094048;28;20214;-77
2022/09/17 00:45:36;;;;;;;3.70;1.10;;;;;;;;;;5093407;28;20198;-77
2022/09/17 00:48:40;;;;;;;3.13;0.90;;;;;;;;;;5094222;28;20171;-77
2022/09/17 00:51:53;;;;;;;1.17;1.00;;;;;;;;;;5093433;28;20215;-76
2022/09/17 00:55:12;;;;;;;2.80;1.30;;;;;;;;;;5094029;28;20179;-77
2022/09/17 00:58:19;;;;;;;5.57;1.03;;;;;;;;;;5093077;28;20183;-76
2022/09/17 01:01:24;;;;;;;3.57;0.90;;;;;;;;;;5093703;28;20211;-76
2022/09/17 01:04:28;;;;;;;2.60;1.00;;;;;;;;;;5093519;28;20179;-77
2022/09/17 01:07:41;;;;;;;1.87;0.90;;;;;;;;;;5093208;28;20179;-77
2022/09/17 01:11:05;;;;;;;1.33;1.00;;;;;;;;;;5069677;28;20577;-76
2022/09/17 01:14:49;;;;;;;1.73;0.80;;;;;;;;;;5092824;28;20179;-77
2022/09/17 01:18:21;;;;;;;2.57;1.10;;;;;;;;;;5093543;28;20191;-76
2022/09/17 01:21:41;;;;;;;3.43;1.00;;;;;;;;;;5093043;28;20218;-77
2022/09/17 01:25:11;;;;;;;1.00;0.63;;;;;;;;;;5093433;28;20180;-76
2022/09/17 01:28:28;;;;;;;2.33;1.13;;;;;;;;;;5092898;28;20187;-76
2022/09/17 01:31:38;;;;;;;3.03;1.00;;;;;;;;;;5093269;28;20685;-77
2022/09/17 01:35:05;;;;;;;2.43;0.80;;;;;;;;;;5093639;28;20634;-75
2022/09/17 01:38:10;;;;;;;2.30;1.00;;;;;;;;;;5093505;28;20175;-77
2022/09/17 01:41:20;;;;;;;2.10;1.00;;;;;;;;;;5093187;28;20214;-77
2022/09/17 01:44:39;;;;;;;1.63;1.00;;;;;;;;;;5081150;28;20175;-77
2022/09/17 01:48:02;;;;;;;3.53;1.00;;;;;;;;;;5092698;28;20187;-77
2022/09/17 01:51:11;;;;;;;2.03;1.00;;;;;;;;;;5104175;28;20556;-77
2022/09/17 01:54:23;;;;;;;2.27;0.97;;;;;;;;;;5093074;28;20195;-76
2022/09/17 01:57:48;;;;;;;4.20;1.10;;;;;;;;;;5093394;28;20611;-77
2022/09/17 02:01:03;;;;;;;1.33;1.00;;;;;;;;;;5092314;28;20179;-76
2022/09/17 02:04:13;;;;;;;1.10;1.00;;;;;;;;;;5104545;28;20183;-77
2022/09/17 02:07:22;;;;;;;2.90;1.50;;;;;;;;;;5093647;28;20623;-77
2022/09/17 02:10:30;;;;;;;3.13;1.30;;;;;;;;;;5092125;28;20214;-76
2022/09/17 02:13:42;;;;;;;1.97;1.40;;;;;;;;;;5093205;28;20190;-76
2022/09/17 02:16:51;;;;;;;4.03;1.40;;;;;;;;;;5094444;28;20195;-77
2022/09/17 02:19:55;;;;;;;1.20;1.10;;;;;;;;;;5097233;28;20179;-77
2022/09/17 02:23:07;;;;;;;2.73;1.03;;;;;;;;;;5107692;28;20214;-77
2022/09/17 02:26:16;;;;;;;3.07;1.40;;;;;;;;;;5097003;28;20178;-76
2022/09/17 02:29:28;;;;;;;1.50;1.40;;;;;;;;;;5096980;28;20203;-77
2022/09/17 02:32:32;;;;;;;1.83;1.43;;;;;;;;;;5096899;28;20678;-77
2022/09/17 02:35:37;;;;;;;2.40;1.70;;;;;;;;;;5096199;28;20183;-77
2022/09/17 02:38:45;;;;;;;4.83;1.67;;;;;;;;;;5096290;28;20529;-76
2022/09/17 02:42:08;;;;;;;2.73;2.00;;;;;;;;;;5095833;28;20211;-77
2022/09/17 02:45:33;;;;;;;3.97;1.80;;;;;;;;;;5096507;28;20183;-77
2022/09/17 02:48:55;;;;;;;2.13;1.93;;;;;;;;;;5095812;28;20183;-77
2022/09/17 02:52:30;;;;;;;2.30;2.00;;;;;;;;;;5096198;28;20208;-77
2022/09/17 02:55:51;;;;;;;2.90;2.17;;;;;;;;;;5096206;28;20202;-77
2022/09/17 02:59:03;;;;;;;2.50;2.20;;;;;;;;;;5107471;28;20187;-76
2022/09/17 03:02:17;;;;;;;3.47;2.27;;;;;;;;;;5096154;28;20693;-77
2022/09/17 03:05:22;;;;;;;4.00;2.70;;;;;;;;;;5096016;28;20190;-76
2022/09/17 03:08:31;;;;;;;4.07;2.60;;;;;;;;;;5107331;28;20179;-76
2022/09/17 03:11:35;;;;;;;5.90;2.60;;;;;;;;;;5095851;28;20215;-77
2022/09/17 03:14:39;;;;;;;4.30;2.40;;;;;;;;;;5095306;28;20179;-76
2022/09/17 03:17:44;;;;;;;4.10;2.80;;;;;;;;;;5095810;28;20179;-77
2022/09/17 03:20:48;;;;;;;5.70;2.80;;;;;;;;;;5095950;28;20191;-77
2022/09/17 03:23:52;;;;;;;4.17;2.60;;;;;;;;;;5094836;28;20203;-77
2022/09/17 03:26:56;;;;;;;4.20;2.90;;;;;;;;;;5095469;28;20199;-77
2022/09/17 03:30:00;;;;;;;3.63;2.90;;;;;;;;;;5106619;28;20212;-77
2022/09/17 03:33:04;;;;;;;3.67;2.80;;;;;;;;;;5094654;28;20218;-77
2022/09/17 03:36:09;;;;;;;5.60;2.63;;;;;;;;;;5083308;28;20203;-77
2022/09/17 03:39:13;;;;;;;4.93;2.67;;;;;;;;;;5094554;28;20183;-77
2022/09/17 03:42:17;;;;;;;3.67;2.47;;;;;;;;;;5095621;28;20210;-77
2022/09/17 03:45:21;;;;;;;4.67;2.63;;;;;;;;;;5095261;28;20179;-77
2022/09/17 03:48:25;;;;;;;9.47;2.80;;;;;;;;;;5094750;28;20171;-77
2022/09/17 03:51:29;;;;;;;7.87;2.90;;;;;;;;;;5095253;28;20222;-77
2022/09/17 03:54:34;;;;;;;5.27;2.57;;;;;;;;;;5094603;28;20179;-76
2022/09/17 03:57:38;;;;;;;5.17;3.30;;;;;;;;;;5083087;28;20167;-77
2022/09/17 04:00:42;;;;;;;4.87;2.73;;;;;;;;;;5094347;28;20167;-77
2022/09/17 04:03:47;;;;;;;5.50;2.80;;;;;;;;;;5095208;28;20175;-77
2022/09/17 04:06:51;;;;;;;5.17;2.67;;;;;;;;;;5094418;28;20175;-76
2022/09/17 04:09:55;;;;;;;5.40;2.83;;;;;;;;;;5094947;28;20202;-77
2022/09/17 04:12:59;;;;;;;4.93;2.90;;;;;;;;;;5093856;28;20214;-77
2022/09/17 04:16:03;;;;;;;5.90;2.80;;;;;;;;;;5094641;28;20183;-77
2022/09/17 04:19:07;;;;;;;5.40;3.03;;;;;;;;;;5094094;28;20183;-77
2022/09/17 04:22:11;;;;;;;6.20;2.80;;;;;;;;;;5094631;28;20281;-76
2022/09/17 04:25:16;;;;;;;5.00;2.70;;;;;;;;;;5094542;28;20642;-77
2022/09/17 04:28:20;;;;;;;7.37;2.70;;;;;;;;;;5093621;28;20183;-77
2022/09/17 04:31:25;;;;;;;4.67;2.37;;;;;;;;;;5094361;28;20601;-77
2022/09/17 04:34:30;;;;;;;4.07;2.47;;;;;;;;;;5093521;28;20187;-77
2022/09/17 04:37:35;;;;;;;4.63;2.73;;;;;;;;;;5094579;28;20183;-77
2022/09/17 04:40:41;;;;;;;3.23;2.40;;;;;;;;;;5081489;28;20622;-77
2022/09/17 04:43:45;;;;;;;6.23;2.80;;;;;;;;;;5105302;28;20171;-77
2022/09/17 04:46:49;;;;;;;16.47;4.03;;;;;;;;;;5081618;28;20180;-76
2022/09/17 04:49:53;;;;;;;7.13;2.63;;;;;;;;;;5093908;28;20170;-77
2022/09/17 04:52:57;;;;;;;12.13;2.90;;;;;;;;;;5094079;28;20210;-77
2022/09/17 04:56:02;;;;;;;5.20;2.73;;;;;;;;;;5093864;28;20202;-76
2022/09/17 04:59:06;;;;;;;8.23;2.70;;;;;;;;;;5094031;28;20182;-76
2022/09/17 05:02:10;;;;;;;5.97;3.20;;;;;;;;;;5093140;28;20214;-77
2022/09/17 05:05:15;;;;;;;7.17;2.77;;;;;;;;;;5093257;28;20171;-77
2022/09/17 05:08:21;;;;;;;5.37;2.33;;;;;;;;;;5104934;28;20179;-77
2022/09/17 05:11:25;;;;;;;15.63;6.23;;;;;;;;;;5093536;28;20230;-77
2022/09/17 05:14:29;;;;;;;12.13;3.50;;;;;;;;;;5093211;28;20171;-76
2022/09/17 05:17:33;;;;;;;7.00;2.70;;;;;;;;;;5093824;28;20634;-76
2022/09/17 05:20:38;;;;;;;6.70;2.40;;;;;;;;;;5093508;28;20190;-77
2022/09/17 05:23:42;;;;;;;6.47;2.40;;;;;;;;;;5081212;28;20190;-77
2022/09/17 05:26:46;;;;;;;5.57;2.00;;;;;;;;;;5092566;28;20202;-77
2022/09/17 05:29:50;;;;;;;5.00;2.20;;;;;;;;;;5093550;28;20658;-77
2022/09/17 05:33:02;;;;;;;6.87;2.37;;;;;;;;;;5093280;28;20211;-77
2022/09/17 05:36:07;;;;;;;4.43;2.17;;;;;;;;;;5093308;28;20527;-77
2022/09/17 05:39:11;;;;;;;6.17;2.23;;;;;;;;;;5093424;28;20179;-77
2022/09/17 05:42:15;;;;;;;3.93;1.90;;;;;;;;;;5093447;28;20570;-77
2022/09/17 05:45:19;;;;;;;4.43;2.20;;;;;;;;;;5104145;28;20182;-77
2022/09/17 05:48:23;;;;;;;7.37;2.23;;;;;;;;;;5093478;28;20178;-76
2022/09/17 05:51:27;;;;;;;4.67;1.70;;;;;;;;;;5093512;28;20230;-77
2022/09/17 05:54:31;;;;;;;5.53;1.87;;;;;;;;;;5085110;28;20175;-77
2022/09/17 05:57:35;;;;;;;11.20;2.37;;;;;;;;;;5103210;28;20174;-77
2022/09/17 06:00:40;;;;;;;7.43;1.97;;;;;;;;;;5097305;28;20182;-77
2022/09/17 06:03:44;;;;;;;7.03;2.03;;;;;;;;;;5096934;28;20179;-77
2022/09/17 06:06:48;;;;;;;12.83;2.33;;;;;;;;;;5085014;28;20178;-77
2022/09/17 06:09:53;;;;;;;7.27;1.90;;;;;;;;;;5096372;28;20175;-77
2022/09/17 06:12:58;;;;;;;6.27;1.53;;;;;;;;;;5097053;28;20222;-77
2022/09/17 06:16:03;;;;;;;3.70;1.40;;;;;;;;;;5097077;28;20194;-77
2022/09/17 06:19:07;;;;;;;6.37;1.63;;;;;;;;;;5096459;28;20183;-77
2022/09/17 06:22:11;;;;;;;6.37;1.70;;;;;;;;;;5107888;28;20210;-77
2022/09/17 06:25:15;;;;;;;4.07;1.80;;;;;;;;;;5084366;28;20195;-77
2022/09/17 06:28:19;;;;;;;6.13;1.57;;;;;;;;;;5097076;28;20182;-77
2022/09/17 06:31:22;;;;;;;7.03;1.50;;;;;;;;;;5096675;28;20230;-77
2022/09/17 06:34:27;;;;;;;6.33;2.10;;;;;;;;;;5096925;28;20179;-77
2022/09/17 06:37:31;;;;;;;8.53;2.70;;;;;;;;;;5096647;28;20183;-77
2022/09/17 06:40:36;;;;;;;7.23;2.20;;;;;;;;;;5096642;28;20167;-77
2022/09/17 06:43:40;;;;;;;7.17;1.87;;;;;;;;;;5096480;28;20553;-77
2022/09/17 06:46:44;;;;;;;7.87;1.80;;;;;;;;;;5096407;28;20179;-77
2022/09/17 06:49:48;;;;;;;5.33;2.60;;;;;;;;;;5095786;28;20182;-77
2022/09/17 06:52:53;;;;;;;5.43;2.20;;;;;;;;;;5096479;28;20554;-77
2022/09/17 06:55:58;;;;;;;8.97;1.50;;;;;;;;;;5083945;28;20206;-77
2022/09/17 06:59:02;;;;;;;4.60;2.10;;;;;;;;;;5096166;28;20175;-77
2022/09/17 07:02:08;;;;;;;5.47;2.07;;;;;;;;;;5095649;28;20206;-77
2022/09/17 07:05:12;;;;;;;5.03;2.23;;;;;;;;;;5096537;28;20674;-77
2022/09/17 07:08:16;;;;;;;7.90;1.70;;;;;;;;;;5096034;28;20178;-77
2022/09/17 07:11:20;;;;;;;6.47;1.53;;;;;;;;;;5096203;28;20226;-77
2022/09/17 07:14:25;;;;;;;6.50;1.57;;;;;;;;;;5096188;28;20179;-77
2022/09/17 07:17:29;;;;;;;8.17;1.93;;;;;;;;;;5096132;28;20174;-77
2022/09/17 07:20:33;;;;;;;8.37;1.60;;;;;;;;;;5094906;28;20195;-77
2022/09/17 07:23:37;;;;;;;4.70;1.60;;;;;;;;;;5095733;28;20198;-77
2022/09/17 07:26:41;;;;;;;6.37;1.60;;;;;;;;;;5095724;28;20179;-77
2022/09/17 07:29:46;;;;;;;4.27;1.33;;;;;;;;;;5095808;28;20194;-77
2022/09/17 07:32:50;;;;;;;6.40;1.40;;;;;;;;;;5095423;28;20234;-76
2022/09/17 07:35:57;;;;;;;7.93;1.67;;;;;;;;;;5095485;28;20175;-77
2022/09/17 07:39:01;;;;;;;5.67;1.20;;;;;;;;;;5095834;28;20174;-77
2022/09/17 07:42:05;;;;;;;5.50;1.17;;;;;;;;;;5095533;28;20206;-77
2022/09/17 07:45:09;;;;;;;9.23;1.33;;;;;;;;;;5095285;28;20182;-77
2022/09/17 07:48:13;;;;;;;6.00;1.53;;;;;;;;;;5095555;28;20183;-77
2022/09/17 07:51:23;;;;;;;8.37;1.53;;;;;;;;;;5094240;28;20226;-76
2022/09/17 07:54:28;;;;;;;5.60;1.50;;;;;;;;;;5094378;28;20178;-77
2022/09/17 07:57:32;;;;;;;6.20;1.60;;;;;;;;;;5106186;28;20170;-77
2022/09/17 08:00:36;;;;;;;6.77;1.47;;;;;;;;;;5095072;28;20171;-76
2022/09/17 08:03:42;;;;;;;4.73;1.10;;;;;;;;;;5082859;28;20637;-77
2022/09/17 08:06:49;;;;;;;9.20;1.60;;;;;;;;;;5095167;28;20515;-77
2022/09/17 08:09:53;;;;;;;14.90;1.77;;;;;;;;;;5094197;28;20541;-77
2022/09/17 08:12:57;;;;;;;8.17;1.37;;;;;;;;;;5082270;28;20223;-77
2022/09/17 08:16:12;;;;;;;8.70;1.70;;;;;;;;;;5105498;28;20629;-77
2022/09/17 08:19:17;;;;;;;3.30;1.13;;;;;;;;;;5094106;28;20179;-77
2022/09/17 08:22:21;;;;;;;6.10;1.93;;;;;;;;;;5094547;28;20207;-77
2022/09/17 08:25:26;;;;;;;4.83;1.63;;;;;;;;;;5094516;28;20198;-77
2022/09/17 08:28:30;;;;;;;5.03;1.37;;;;;;;;;;5094667;28;20522;-76
2022/09/17 08:31:34;;;;;;;5.07;1.57;;;;;;;;;;5094228;28;20223;-77
2022/09/17 08:34:38;;;;;;;2.67;1.13;;;;;;;;;;5094402;28;20179;-77
2022/09/17 08:37:42;;;;;;;5.93;1.73;;;;;;;;;;5094514;28;20523;-76
2022/09/17 08:41:04;;;;;;;5.27;1.50;;;;;;;;;;5094499;28;20178;-76
2022/09/17 08:44:38;;;;;;;5.70;1.93;;;;;;;;;;5094417;28;20179;-76
2022/09/17 08:47:42;;;;;;;4.73;1.60;;;;;;;;;;5093595;28;20179;-76
2022/09/17 08:50:47;;;;;;;1.83;1.30;;;;;;;;;;5081885;28;20171;-76
2022/09/17 08:54:01;;;;;;;4.97;1.50;;;;;;;;;;5104913;28;20551;-76
2022/09/17 08:57:30;;;;;;;2.83;1.30;;;;;;;;;;5104726;28;20198;-76
2022/09/17 09:00:44;;;;;;;11.97;5.77;;;;;;;;;;5094097;28;20174;-76
2022/09/17 09:03:51;;;;;;;4.50;2.73;;;;;;;;;;5092527;28;20186;-75
2022/09/17 09:07:05;;;;;;;4.70;1.37;;;;;;;;;;5070266;28;20278;-76
2022/09/17 09:10:09;;;;;;;2.40;1.40;;;;;;;;;;5081484;28;20179;-76
2022/09/17 09:13:16;;;;;;;1.33;1.17;;;;;;;;;;5094040;28;20223;-76
2022/09/17 09:16:25;;;;;;;3.77;1.47;;;;;;;;;;5093754;28;20187;-76
2022/09/17 09:19:32;;;;;;;3.57;1.17;;;;;;;;;;5093008;28;20190;-76
2022/09/17 09:22:42;;;;;;;3.00;2.30;;;;;;;;;;5093480;28;20207;-76
2022/09/17 09:25:53;;;;;;;2.13;1.73;;;;;;;;;;5093615;28;20179;-76
2022/09/17 09:29:08;;;;;;;5.27;4.20;;;;;;;;;;5093439;28;20175;-76
2022/09/17 09:32:33;;;;;;;3.40;2.70;;;;;;;;;;5104534;28;20226;-76
2022/09/17 09:35:41;;;;;;;4.77;3.10;;;;;;;;;;5092617;28;20525;-76
2022/09/17 09:39:18;;;;;;;7.07;3.73;;;;;;;;;;5093478;28;20183;-76
2022/09/17 09:42:29;;;;;;;2.63;2.10;;;;;;;;;;5093446;28;20570;-76
2022/09/17 09:45:46;;;;;;;1.73;1.30;;;;;;;;;;5093652;28;20179;-76
2022/09/17 09:49:18;;;;;;;7.27;4.80;;;;;;;;;;5092686;28;20178;-76
2022/09/17 09:52:22;;;;;;;1.87;1.10;;;;;;;;;;5080881;28;20222;-76
2022/09/17 09:55:46;;;;;;;11.20;7.37;;;;;;;;;;5092316;28;20661;-76
2022/09/17 09:58:51;;;;;;;3.17;1.40;;;;;;;;;;5093212;28;20179;-76
2022/09/17 10:01:55;;;;;;;1.60;0.80;;;;;;;;;;5092993;28;20210;-76
2022/09/17 10:05:09;;;;;;;1.40;0.90;;;;;;;;;;5093368;28;20171;-76
2022/09/17 10:08:15;;;;;;;3.07;1.30;;;;;;;;;;5092759;28;20178;-76
2022/09/17 10:11:21;;;;;;;2.50;0.93;;;;;;;;;;5092174;28;20558;-76
2022/09/17 10:14:28;;;;;;;1.77;1.10;;;;;;;;;;5093178;28;20199;-77
2022/09/17 10:17:32;;;;;;;2.57;1.03;;;;;;;;;;5092911;28;20194;-77
2022/09/17 10:20:48;;;;;;;1.90;1.20;;;;;;;;;;5092101;28;20183;-76
2022/09/17 10:23:53;;;;;;;1.77;1.10;;;;;;;;;;5092835;28;20175;-76
2022/09/17 10:27:18;;;;;;;3.10;1.20;;;;;;;;;;5093143;28;20626;-76
2022/09/17 10:30:24;;;;;;;1.20;1.00;;;;;;;;;;5092983;28;20183;-76
2022/09/17 10:33:30;;;;;;;2.87;1.50;;;;;;;;;;5092644;28;20226;-77
2022/09/17 10:36:38;;;;;;;2.80;1.30;;;;;;;;;;5092696;28;20191;-77
2022/09/17 10:39:47;;;;;;;3.37;1.30;;;;;;;;;;5095896;28;20174;-77
2022/09/17 10:43:13;;;;;;;2.80;1.47;;;;;;;;;;5095824;28;20218;-77
2022/09/17 10:46:24;;;;;;;2.57;1.00;;;;;;;;;;5101616;28;20175;-77
2022/09/17 10:49:31;;;;;;;1.73;1.30;;;;;;;;;;5097124;28;20183;-76
2022/09/17 10:52:45;;;;;;;4.90;1.20;;;;;;;;;;5096271;28;20222;-77
2022/09/17 10:56:14;;;;;;;3.07;1.33;;;;;;;;;;5096241;28;20202;-76
2022/09/17 11:00:09;;;;;;;1.93;1.10;;;;;;;;;;5096719;28;20182;-76
2022/09/17 11:03:47;;;;;;;5.53;1.20;;;;;;;;;;5002711;28;20205;-76
2022/09/17 11:07:14;;;;;;;3.23;1.10;;;;;;;;;;5026881;28;20199;-77
2022/09/17 11:10:52;;;;;;;4.00;1.10;;;;;;;;;;5072281;28;20523;-77
2022/09/17 11:14:18;;;;;;;2.77;1.10;;;;;;;;;;5095299;28;20187;-77
2022/09/17 11:17:58;;;;;;;4.57;1.70;;;;;;;;;;5095410;28;20183;-77
2022/09/17 11:21:25;;;;;;;2.83;1.13;;;;;;;;;;5061286;28;20646;-77
2022/09/17 11:24:55;;;;;;;2.80;1.13;;;;;;;;;;5096430;28;20178;-77
2022/09/17 11:28:18;;;;;;;3.37;1.10;;;;;;;;;;5096679;28;20523;-77
2022/09/17 11:31:56;;;;;;;3.97;1.20;;;;;;;;;;5095540;28;20219;-77
2022/09/17 11:35:15;;;;;;;4.73;1.40;;;;;;;;;;5084698;28;20187;-77
2022/09/17 11:38:25;;;;;;;5.03;1.60;;;;;;;;;;5096743;28;20183;-77
2022/09/17 11:41:39;;;;;;;5.10;1.80;;;;;;;;;;5096712;28;20207;-77
2022/09/17 11:44:56;;;;;;;5.63;1.37;;;;;;;;;;5095299;28;20195;-77
2022/09/17 11:48:16;;;;;;;2.80;0.90;;;;;;;;;;5084047;28;20195;-77
2022/09/17 11:51:41;;;;;;;2.20;1.03;;;;;;;;;;5097001;28;20211;-77
2022/09/17 11:54:54;;;;;;;3.53;1.40;;;;;;;;;;5099034;28;20183;-78
2022/09/17 11:58:14;;;;;;;4.00;1.23;;;;;;;;;;5099649;28;20179;-77
2022/09/17 12:01:36;;;;;;;5.23;1.27;;;;;;;;;;5099281;28;20223;-78
2022/09/17 12:04:43;;;;;;;3.10;1.10;;;;;;;;;;5098616;28;20175;-77
2022/09/17 12:07:53;;;;;;;6.13;1.53;;;;;;;;;;5099094;28;20175;-77
2022/09/17 12:11:14;;;;;;;4.97;1.47;;;;;;;;;;5094218;28;20630;-75
2022/09/17 12:14:23;;;;;;;5.47;1.53;;;;;;;;;;5095072;28;20172;-76
2022/09/17 12:17:46;;;;;;;4.87;1.10;;;;;;;;;;5095376;28;20511;-74
2022/09/17 12:20:55;;;;;;;3.50;1.00;;;;;;;;;;5093789;28;20176;-74
2022/09/17 12:24:11;;;;;;;3.00;1.10;;;;;;;;;;5094790;28;20183;-75
2022/09/17 12:27:58;;;;;;;3.30;1.10;;;;;;;;;;5095107;28;20183;-74
2022/09/17 12:31:32;;;;;;;2.97;1.03;;;;;;;;;;5094489;28;20179;-74
2022/09/17 12:34:53;;;;;;;4.57;1.60;;;;;;;;;;5094689;28;20633;-74
2022/09/17 12:37:56;;;;;;;6.30;1.87;;;;;;;;;;5094594;28;20187;-75
2022/09/17 12:41:23;;;;;;;4.23;1.43;;;;;;;;;;5094145;28;20191;-74
2022/09/17 12:44:49;;;;;;;17.97;2.27;;;;;;;;;;5094738;28;20175;-74
2022/09/17 12:48:04;;;;;;;17.10;2.87;;;;;;;;;;5093670;28;20183;-74
2022/09/17 12:51:38;;;;;;;11.47;2.00;;;;;;;;;;5093961;28;20183;-75
2022/09/17 12:55:03;;;;;;;7.57;1.90;;;;;;;;;;5094035;28;20191;-75
2022/09/17 12:58:20;;;;;;;12.40;1.23;;;;;;;;;;5094231;28;20179;-75
2022/09/17 13:01:30;;;;;;;4.17;1.73;;;;;;;;;;5093426;28;20218;-75
2022/09/17 13:05:02;;;;;;;11.20;1.83;;;;;;;;;;5094130;28;20179;-75
2022/09/17 13:08:38;;;;;;;11.30;2.10;;;;;;;;;;5093973;28;20175;-75
2022/09/17 13:11:52;;;;;;;4.07;1.43;;;;;;;;;;5092917;28;20227;-76
2022/09/17 13:15:19;;;;;;;5.90;1.50;;;;;;;;;;5093561;28;20191;-75
2022/09/17 13:18:38;;;;;;;10.23;1.50;;;;;;;;;;5093627;28;20507;-76
2022/09/17 13:21:57;;;;;;;6.13;1.60;;;;;;;;;;5093595;28;20218;-75
2022/09/17 13:25:12;;;;;;;4.63;1.40;;;;;;;;;;5093749;28;20171;-76
2022/09/17 13:28:17;;;;;;;6.77;1.37;;;;;;;;;;5093332;28;20183;-75
2022/09/17 13:31:43;;;;;;;5.17;1.43;;;;;;;;;;5092450;28;20214;-75
2022/09/17 13:34:47;;;;;;;5.33;1.23;;;;;;;;;;5093325;28;20175;-74
2022/09/17 13:37:51;;;;;;;5.17;1.20;;;;;;;;;;5092383;28;20186;-74
2022/09/17 13:41:19;;;;;;;5.33;1.10;;;;;;;;;;5092888;28;20190;-74
2022/09/17 13:44:23;;;;;;;6.03;1.40;;;;;;;;;;5092671;28;20182;-74
2022/09/17 13:47:34;;;;;;;6.60;1.60;;;;;;;;;;5093430;28;20174;-75
2022/09/17 13:50:43;;;;;;;4.63;1.27;;;;;;;;;;5093468;28;20170;-75
2022/09/17 13:53:53;;;;;;;4.00;1.20;;;;;;;;;;5092604;28;20207;-77
2022/09/17 13:57:11;;;;;;;5.37;1.33;;;;;;;;;;5080816;28;20202;-76
2022/09/17 14:00:53;;;;;;;4.00;1.20;;;;;;;;;;5093286;28;20179;-76
2022/09/17 14:03:57;;;;;;;4.57;1.17;;;;;;;;;;5096004;28;20187;-80
2022/09/17 14:07:22;;;;;;;3.37;1.00;;;;;;;;;;5080281;28;20182;-80
2022/09/17 14:10:36;;;;;;;4.90;1.30;;;;;;;;;;5103104;28;20171;-80
2022/09/17 14:13:42;;;;;;;5.20;1.30;;;;;;;;;;5107162;28;20214;-79
2022/09/17 14:16:49;;;;;;;4.70;1.10;;;;;;;;;;5107470;28;20183;-79
2022/09/17 14:19:54;;;;;;;7.77;1.53;;;;;;;;;;5106808;28;20662;-79
2022/09/17 14:23:02;;;;;;;4.43;1.00;;;;;;;;;;5085885;28;20547;-78
2022/09/17 14:26:12;;;;;;;2.47;1.20;;;;;;;;;;5100739;28;20187;-79
2022/09/17 14:29:54;;;;;;;4.60;1.47;;;;;;;;;;5100149;28;20195;-79
2022/09/17 14:33:11;;;;;;;3.17;1.10;;;;;;;;;;5113418;28;20223;-79
2022/09/17 14:36:20;;;;;;;2.20;1.00;;;;;;;;;;5103620;28;20175;-80
2022/09/17 14:39:33;;;;;;;3.57;1.00;;;;;;;;;;5091048;28;20187;-79
2022/09/17 14:42:37;;;;;;;1.77;0.83;;;;;;;;;;5102077;28;20219;-79
2022/09/17 14:45:42;;;;;;;1.60;0.70;;;;;;;;;;5101702;28;20519;-79
2022/09/17 14:48:46;;;;;;;2.03;0.70;;;;;;;;;;5102463;28;20174;-80
2022/09/17 14:51:55;;;;;;;2.43;0.77;;;;;;;;;;5091042;28;20222;-79
2022/09/17 14:55:10;;;;;;;2.37;0.90;;;;;;;;;;5080157;28;20207;-80
2022/09/17 14:58:35;;;;;;;1.97;1.00;;;;;;;;;;5115829;28;20622;-79
2022/09/17 15:01:46;;;;;;;1.53;0.80;;;;;;;;;;5103013;28;20215;-80
2022/09/17 15:04:51;;;;;;;3.73;1.00;;;;;;;;;;5091414;28;20194;-80
2022/09/17 15:08:06;;;;;;;2.53;0.80;;;;;;;;;;5080483;28;20179;-79
2022/09/17 15:11:10;;;;;;;1.77;0.70;;;;;;;;;;5090963;28;20191;-81
2022/09/17 15:14:21;;;;;;;1.53;0.90;;;;;;;;;;5090518;28;20207;-80
2022/09/17 15:17:26;;;;;;;2.30;1.20;;;;;;;;;;5078777;28;20182;-80
2022/09/17 15:20:31;;;;;;;3.33;1.40;;;;;;;;;;5103803;28;20182;-80
2022/09/17 15:23:36;;;;;;;3.33;1.00;;;;;;;;;;5086604;28;20515;-79
2022/09/17 15:26:44;;;;;;;6.83;1.40;;;;;;;;;;5086196;28;20187;-79
2022/09/17 15:29:51;;;;;;;4.50;0.90;;;;;;;;;;5086136;28;20195;-80
2022/09/17 15:32:57;;;;;;;3.47;1.20;;;;;;;;;;5100497;28;20218;-79
2022/09/17 15:36:16;;;;;;;2.87;1.00;;;;;;;;;;5100016;28;20179;-80
2022/09/17 15:39:29;;;;;;;2.60;0.93;;;;;;;;;;5098520;28;20179;-80
2022/09/17 15:42:33;;;;;;;3.23;1.00;;;;;;;;;;5075836;28;20211;-79
2022/09/17 15:45:38;;;;;;;4.60;1.30;;;;;;;;;;5087704;28;20183;-80
2022/09/17 15:48:42;;;;;;;1.20;1.00;;;;;;;;;;5086886;28;20174;-80
2022/09/17 15:51:47;;;;;;;4.10;1.03;;;;;;;;;;5086727;28;20220;-80
2022/09/17 15:54:51;;;;;;;4.80;1.27;;;;;;;;;;5086873;28;20215;-79
2022/09/17 15:58:00;;;;;;;3.63;0.90;;;;;;;;;;5086581;28;20178;-79
2022/09/17 16:01:10;;;;;;;4.07;1.20;;;;;;;;;;5086917;28;20175;-79
2022/09/17 16:04:19;;;;;;;5.10;1.00;;;;;;;;;;5087357;28;20179;-80
2022/09/17 16:07:29;;;;;;;2.20;1.00;;;;;;;;;;5087928;28;20178;-79
2022/09/17 16:10:33;;;;;;;2.67;1.10;;;;;;;;;;5111135;28;20179;-79
2022/09/17 16:13:37;;;;;;;1.33;0.90;;;;;;;;;;5099106;28;20202;-80
2022/09/17 16:16:42;;;;;;;4.13;0.80;;;;;;;;;;5076665;28;20174;-81
2022/09/17 16:19:46;;;;;;;7.43;1.20;;;;;;;;;;5076807;28;20186;-81
2022/09/17 16:22:51;;;;;;;3.40;0.97;;;;;;;;;;5076093;28;20210;-80
2022/09/17 16:25:56;;;;;;;3.60;1.07;;;;;;;;;;5099160;28;20179;-80
2022/09/17 16:29:09;;;;;;;3.07;0.80;;;;;;;;;;5086516;28;20183;-81
2022/09/17 16:32:14;;;;;;;2.93;1.20;;;;;;;;;;5086730;28;20210;-81
2022/09/17 16:35:21;;;;;;;2.20;0.93;;;;;;;;;;5085300;28;20214;-81
2022/09/17 16:38:25;;;;;;;0.70;0.60;;;;;;;;;;5085984;28;20205;-80
2022/09/17 16:41:29;;;;;;;3.60;1.17;;;;;;;;;;5098613;28;20218;-80
2022/09/17 16:44:34;;;;;;;4.13;0.80;;;;;;;;;;5088528;28;20614;-81
2022/09/17 16:47:39;;;;;;;3.37;0.90;;;;;;;;;;5087930;28;20179;-80
2022/09/17 16:50:43;;;;;;;2.23;0.97;;;;;;;;;;5088151;28;20179;-81
2022/09/17 16:53:48;;;;;;;1.80;0.67;;;;;;;;;;5087870;28;20210;-81
2022/09/17 16:56:54;;;;;;;3.30;0.70;;;;;;;;;;5087966;28;20202;-80
2022/09/17 16:59:58;;;;;;;1.33;0.73;;;;;;;;;;5088080;28;20175;-80
2022/09/17 17:03:03;;;;;;;0.50;0.50;;;;;;;;;;5098643;28;20214;-80
2022/09/17 17:06:15;;;;;;;0.97;0.50;;;;;;;;;;5076546;28;20511;-79
2022/09/17 17:09:19;;;;;;;1.13;0.60;;;;;;;;;;5099264;28;20183;-81
2022/09/17 17:12:24;;;;;;;2.93;0.70;;;;;;;;;;5100009;28;20554;-80
2022/09/17 17:15:29;;;;;;;1.53;0.70;;;;;;;;;;5099637;28;20207;-81
2022/09/17 17:18:33;;;;;;;1.60;0.70;;;;;;;;;;5109684;28;20175;-79
2022/09/17 17:21:38;;;;;;;2.77;0.80;;;;;;;;;;5099933;28;20210;-80
2022/09/17 17:24:43;;;;;;;2.17;0.70;;;;;;;;;;5099148;28;20646;-79
2022/09/17 17:27:47;;;;;;;3.63;0.93;;;;;;;;;;5086868;28;20175;-79
2022/09/17 17:30:51;;;;;;;0.90;0.60;;;;;;;;;;5099334;28;20183;-79
2022/09/17 17:33:56;;;;;;;1.07;0.73;;;;;;;;;;5100285;28;20210;-79
2022/09/17 17:37:01;;;;;;;2.43;0.73;;;;;;;;;;5099319;28;20629;-80
2022/09/17 17:40:09;;;;;;;4.33;0.80;;;;;;;;;;5101471;28;20170;-80
2022/09/17 17:43:13;;;;;;;1.77;0.90;;;;;;;;;;5102520;28;20214;-79
2022/09/17 17:46:18;;;;;;;1.77;0.80;;;;;;;;;;5090725;28;20175;-79
2022/09/17 17:49:22;;;;;;;1.97;0.70;;;;;;;;;;5113003;28;20183;-80
2022/09/17 17:52:26;;;;;;;1.90;0.70;;;;;;;;;;5090267;28;20220;-79
2022/09/17 17:55:31;;;;;;;4.13;0.90;;;;;;;;;;5090302;28;20222;-79
2022/09/17 17:58:36;;;;;;;0.80;0.70;;;;;;;;;;5090825;28;20183;-79
2022/09/17 18:01:40;;;;;;;1.77;0.90;;;;;;;;;;5089081;28;20215;-79
2022/09/17 18:04:44;;;;;;;2.80;0.70;;;;;;;;;;5089094;28;20649;-79
2022/09/17 18:07:49;;;;;;;2.40;0.80;;;;;;;;;;5099548;28;20179;-80
2022/09/17 18:10:55;;;;;;;0.80;0.60;;;;;;;;;;5088333;28;20179;-79
2022/09/17 18:14:00;;;;;;;1.30;0.80;;;;;;;;;;5088974;28;20203;-79
2022/09/17 18:17:05;;;;;;;1.20;0.73;;;;;;;;;;5100329;28;20641;-79
2022/09/17 18:20:09;;;;;;;2.10;0.80;;;;;;;;;;5089313;28;20546;-78
2022/09/17 18:23:14;;;;;;;2.13;0.80;;;;;;;;;;5089466;28;20206;-79
2022/09/17 18:26:21;;;;;;;1.27;0.67;;;;;;;;;;5089050;28;20171;-79
2022/09/17 18:29:25;;;;;;;2.57;0.70;;;;;;;;;;5077825;28;20183;-80
2022/09/17 18:32:29;;;;;;;2.10;0.90;;;;;;;;;;5090303;28;20220;-78
2022/09/17 18:35:35;;;;;;;2.83;1.20;;;;;;;;;;5077480;28;20561;-78
2022/09/17 18:38:39;;;;;;;1.50;0.80;;;;;;;;;;5099202;28;20195;-78
2022/09/17 18:41:44;;;;;;;2.53;1.27;;;;;;;;;;5088656;28;20236;-79
2022/09/17 18:44:47;;;;;;;1.43;1.00;;;;;;;;;;5111132;28;20175;-77
2022/09/17 18:47:52;;;;;;;1.77;0.90;;;;;;;;;;5075473;28;20199;-78
2022/09/17 18:51:02;;;;;;;2.23;1.30;;;;;;;;;;5098150;28;20179;-77
2022/09/17 18:54:11;;;;;;;1.83;1.00;;;;;;;;;;5098965;28;20191;-78
2022/09/17 18:57:15;;;;;;;1.90;0.97;;;;;;;;;;5088263;28;20565;-78
2022/09/17 19:00:21;;;;;;;1.73;1.00;;;;;;;;;;5104352;28;20170;-79